Tessenderlo, Belgium
Current Conditions -  °F | °C
As of 6:25 AM on Wednesday 22 Oct 2014 (Local Time) from EBDT Reporting Station
Light Rain Light Rain  
Wind Chill: 39°   Ceiling: 4500
Heat Index: 43°   Visibility: 6mi
Dew Point: 41°   Wind: 7mph
Humidity: 93%   Direction: 280°W
Pressure: 30.03"   Gusts: NA
Location:  51.07°N, 5.09°E
Report Text: EBDT 220425Z 28006KT 9999 -RA FEW025 BKN045 06/05 Q1017 BLU
Loading
Personal Weather Stations






























Interactive Weather Map
Tropical Storm Tracking
New forecast layout! Learn more

10-Day Weather Forecast

Advertisements
Track Severe Weather on mobile